• Join FlightAware (Why Join?)
  • Login
  • US Flag 
02:02PM EDT


 

Airport Tracker/Info


-or-


 

Live Flight TrackerFlight Track Log ✈ SWA2336 ✈ 10-Apr-2013 ✈ KAUS - KDAL

Flight Track Log - Related Links

Times and Time Zones

All times are in EDT time to prevent confusion due to time zone crossing. See the SWA2336 flight status page for this flight to view local times or setup timezone preferences in your user account.

Time Position Orientation Groundspeed Altitude Reporting Facility
EDT Latitude Longitude Course Direction KTS MPH feet Rate Location/Type
01:57PM 30.3169 -97.7214 11° North 225 259 6,600  Level Houston Center
01:58PM 30.3933 -97.7547 339° North 277 319 9,500 2,460 Climbing Houston Center
01:59PM 30.4783 -97.7911 340° North 311 358 11,800 2,220 Climbing Houston Center
02:00PM 30.5775 -97.8411 337° Northwest 367 422 14,200 2,460 Climbing Houston Center
02:01PM 30.1206 -98.2057 261° West  Level FlightAware Approximate
02:01PM 30.6825 -97.8928 337° Northwest 396 456 17,000  Level Houston Center
02:02PM 30.1166 -98.3169 240° Southwest  Level FlightAware Approximate
02:03PM 30.1339 -98.3758 11° North  Level FlightAware Approximate
02:03PM 30.7824 -97.8459 22° Northeast  Level Estimated
02:03PM 30.9017 -98.0019 22° Northeast 424 488 21,900  Level Houston Center
02:04PM 31.0200 -98.0622 336° Northwest 450 518 22,000  Climbing Houston Center
02:05PM 31.1506 -98.1269 337° Northwest 470 541 22,000  Level Fort Worth Center
02:06PM 31.2844 -98.1183 North 458 527 22,000  Level Fort Worth Center
02:07PM 31.4142 -98.0658 19° North 472 543 22,000  Level Fort Worth Center
02:08PM 31.5333 -97.9861 30° Northeast 472 543 22,000  Level Fort Worth Center
02:09PM 31.6528 -97.9064 30° Northeast 486 559 22,000  Level Fort Worth Center
02:10PM 31.7722 -97.8264 30° Northeast 486 559 22,000 -1,680 Level Fort Worth Center
02:11PM 31.8872 -97.7486 30° Northeast 480 552 18,700 -2,940 Descending Fort Worth Center
02:12PM 31.9897 -97.6803 29° Northeast 475 547 16,200 -2,760 Descending Fort Worth Center
02:13PM 32.1108 -97.5972 30° Northeast 463 533 13,200 -1,920 Descending Fort Worth Center
02:14PM 32.2028 -97.5361 29° Northeast 436 502 12,400 -600 Descending Fort Worth Center
02:15PM 32.2989 -97.4700 30° Northeast 374 430 12,000 -960 Descending Fort Worth Center
02:16PM 32.3617 -97.4036 42° Northeast 344 396 10,500 -1,680 Descending Fort Worth Center
02:17PM 32.3783 -97.2928 80° East 291 335 8,700 -1,560 Descending Fort Worth Center
02:18PM 32.3781 -97.2042 90° East 296 341 7,400 -1,500 Descending Fort Worth Center
02:19PM 32.3758 -97.0986 91° East 290 334 5,700 -1,500 Descending Fort Worth Center
02:20PM 32.3714 -97.0175 94° East 283 326 4,400 -900 Descending Fort Worth Center
02:21PM 32.3919 -96.9214 76° East 268 308 4,000 -240 Descending Fort Worth Center
02:22PM 32.4272 -96.8447 61° Northeast 262 302 4,000  Level Fort Worth Center
02:23PM 32.4792 -96.7903 41° Northeast 251 289 4,000 -300 Level Fort Worth Center
02:24PM 32.5331 -96.7481 33° Northeast 238 274 3,500 -540 Descending Fort Worth Center
02:25PM 32.5914 -96.7231 20° North 223 257 3,000 -300 Descending Fort Worth Center
02:26PM 32.6497 -96.7078 12° North 217 250 3,000  Level Fort Worth Center
02:27PM 32.7000 -96.7000 North 222 255 3,000 -300 Level Dallas / Fort Worth TRACON
02:28PM 32.7333 -96.7333 320° Northwest 198 228 2,500 -420 Descending Dallas / Fort Worth TRACON
02:29PM 32.7667 -96.7667 320° Northwest 165 190 2,200 -540 Descending Dallas / Fort Worth TRACON
02:30PM 32.8000 -96.8000 320° Northwest 112 129 1,500 -660 Descending Dallas / Fort Worth TRACON